sensor_id;sensor_type;location;lat;lon;timestamp;P1;durP1;ratioP1;P2;durP2;ratioP2
57441;SDS011;43284;47.042;15.498;2022-10-31T00:00:57;19.15;;;6.30;;
57441;SDS011;43284;47.042;15.498;2022-10-31T00:03:24;18.52;;;6.53;;
57441;SDS011;43284;47.042;15.498;2022-10-31T00:05:52;17.38;;;6.10;;
57441;SDS011;43284;47.042;15.498;2022-10-31T00:08:19;17.20;;;6.35;;
57441;SDS011;43284;47.042;15.498;2022-10-31T00:10:46;17.27;;;6.38;;
57441;SDS011;43284;47.042;15.498;2022-10-31T00:13:14;12.95;;;5.63;;
57441;SDS011;43284;47.042;15.498;2022-10-31T00:15:41;17.13;;;6.50;;
57441;SDS011;43284;47.042;15.498;2022-10-31T00:18:09;12.98;;;6.10;;
57441;SDS011;43284;47.042;15.498;2022-10-31T00:20:37;18.30;;;6.35;;
57441;SDS011;43284;47.042;15.498;2022-10-31T00:23:05;14.38;;;6.22;;
57441;SDS011;43284;47.042;15.498;2022-10-31T00:25:34;17.17;;;6.38;;
57441;SDS011;43284;47.042;15.498;2022-10-31T00:28:03;18.27;;;5.90;;
57441;SDS011;43284;47.042;15.498;2022-10-31T00:30:32;19.42;;;6.13;;
57441;SDS011;43284;47.042;15.498;2022-10-31T00:33:00;14.82;;;6.30;;
57441;SDS011;43284;47.042;15.498;2022-10-31T00:35:30;16.85;;;5.93;;
57441;SDS011;43284;47.042;15.498;2022-10-31T00:37:57;16.58;;;6.18;;
57441;SDS011;43284;47.042;15.498;2022-10-31T00:40:24;17.23;;;6.70;;
57441;SDS011;43284;47.042;15.498;2022-10-31T00:42:52;20.77;;;6.30;;
57441;SDS011;43284;47.042;15.498;2022-10-31T00:45:19;15.20;;;6.68;;
57441;SDS011;43284;47.042;15.498;2022-10-31T00:47:47;15.48;;;7.68;;
57441;SDS011;43284;47.042;15.498;2022-10-31T00:50:14;13.63;;;6.82;;
57441;SDS011;43284;47.042;15.498;2022-10-31T00:52:41;14.98;;;6.47;;
57441;SDS011;43284;47.042;15.498;2022-10-31T00:55:08;23.02;;;7.65;;
57441;SDS011;43284;47.042;15.498;2022-10-31T00:57:35;18.40;;;6.97;;
57441;SDS011;43284;47.042;15.498;2022-10-31T01:00:03;14.43;;;6.05;;
57441;SDS011;43284;47.042;15.498;2022-10-31T01:02:31;21.25;;;6.93;;
57441;SDS011;43284;47.042;15.498;2022-10-31T01:04:58;15.55;;;6.95;;
57441;SDS011;43284;47.042;15.498;2022-10-31T01:07:25;18.25;;;6.82;;
57441;SDS011;43284;47.042;15.498;2022-10-31T01:09:53;11.77;;;5.53;;
57441;SDS011;43284;47.042;15.498;2022-10-31T01:12:20;17.95;;;6.60;;
57441;SDS011;43284;47.042;15.498;2022-10-31T01:14:48;18.02;;;5.60;;
57441;SDS011;43284;47.042;15.498;2022-10-31T01:17:15;16.65;;;6.10;;
57441;SDS011;43284;47.042;15.498;2022-10-31T01:19:42;15.98;;;6.65;;
57441;SDS011;43284;47.042;15.498;2022-10-31T01:22:11;16.38;;;6.72;;
57441;SDS011;43284;47.042;15.498;2022-10-31T01:24:38;16.27;;;7.78;;
57441;SDS011;43284;47.042;15.498;2022-10-31T01:27:06;21.23;;;7.45;;
57441;SDS011;43284;47.042;15.498;2022-10-31T01:29:33;18.73;;;6.55;;
57441;SDS011;43284;47.042;15.498;2022-10-31T01:32:01;23.98;;;8.75;;
57441;SDS011;43284;47.042;15.498;2022-10-31T01:34:28;18.63;;;7.20;;
57441;SDS011;43284;47.042;15.498;2022-10-31T01:36:55;20.15;;;6.68;;
57441;SDS011;43284;47.042;15.498;2022-10-31T01:39:23;18.02;;;6.47;;
57441;SDS011;43284;47.042;15.498;2022-10-31T01:41:51;17.55;;;6.72;;
57441;SDS011;43284;47.042;15.498;2022-10-31T01:46:50;21.60;;;7.38;;
57441;SDS011;43284;47.042;15.498;2022-10-31T01:49:29;21.05;;;7.38;;
57441;SDS011;43284;47.042;15.498;2022-10-31T01:52:14;24.10;;;8.27;;
57441;SDS011;43284;47.042;15.498;2022-10-31T01:54:52;18.20;;;8.43;;
57441;SDS011;43284;47.042;15.498;2022-10-31T01:57:37;19.50;;;7.72;;
57441;SDS011;43284;47.042;15.498;2022-10-31T02:00:10;15.20;;;7.57;;
57441;SDS011;43284;47.042;15.498;2022-10-31T02:02:38;19.52;;;7.72;;
57441;SDS011;43284;47.042;15.498;2022-10-31T02:05:06;22.00;;;7.40;;
57441;SDS011;43284;47.042;15.498;2022-10-31T02:07:45;21.52;;;6.95;;
57441;SDS011;43284;47.042;15.498;2022-10-31T02:10:16;18.90;;;6.85;;
57441;SDS011;43284;47.042;15.498;2022-10-31T02:12:45;14.68;;;7.20;;
57441;SDS011;43284;47.042;15.498;2022-10-31T02:15:13;25.45;;;8.63;;
57441;SDS011;43284;47.042;15.498;2022-10-31T02:17:41;17.92;;;7.00;;
57441;SDS011;43284;47.042;15.498;2022-10-31T02:20:15;26.85;;;7.47;;
57441;SDS011;43284;47.042;15.498;2022-10-31T02:31:56;16.13;;;6.53;;
57441;SDS011;43284;47.042;15.498;2022-10-31T02:34:42;15.00;;;6.32;;
57441;SDS011;43284;47.042;15.498;2022-10-31T02:37:47;18.77;;;6.82;;
57441;SDS011;43284;47.042;15.498;2022-10-31T02:46:27;20.15;;;6.07;;
57441;SDS011;43284;47.042;15.498;2022-10-31T02:49:12;16.77;;;6.90;;
57441;SDS011;43284;47.042;15.498;2022-10-31T02:52:12;13.38;;;5.38;;
57441;SDS011;43284;47.042;15.498;2022-10-31T02:54:43;21.77;;;6.40;;
57441;SDS011;43284;47.042;15.498;2022-10-31T02:57:12;15.75;;;6.22;;
57441;SDS011;43284;47.042;15.498;2022-10-31T02:59:44;13.80;;;5.75;;
57441;SDS011;43284;47.042;15.498;2022-10-31T03:02:22;15.02;;;6.38;;
57441;SDS011;43284;47.042;15.498;2022-10-31T03:13:06;15.95;;;6.75;;
57441;SDS011;43284;47.042;15.498;2022-10-31T03:15:41;18.52;;;6.38;;
57441;SDS011;43284;47.042;15.498;2022-10-31T03:20:56;16.50;;;6.13;;
57441;SDS011;43284;47.042;15.498;2022-10-31T03:23:31;14.48;;;6.18;;
57441;SDS011;43284;47.042;15.498;2022-10-31T03:26:03;11.80;;;5.60;;
57441;SDS011;43284;47.042;15.498;2022-10-31T03:28:36;21.17;;;5.88;;
57441;SDS011;43284;47.042;15.498;2022-10-31T03:31:13;15.95;;;6.63;;
57441;SDS011;43284;47.042;15.498;2022-10-31T03:33:45;27.98;;;7.00;;
57441;SDS011;43284;47.042;15.498;2022-10-31T03:36:15;17.83;;;6.45;;
57441;SDS011;43284;47.042;15.498;2022-10-31T03:38:44;14.95;;;5.95;;
57441;SDS011;43284;47.042;15.498;2022-10-31T03:41:16;13.95;;;5.47;;
57441;SDS011;43284;47.042;15.498;2022-10-31T03:43:58;12.30;;;6.50;;
57441;SDS011;43284;47.042;15.498;2022-10-31T03:46:32;23.73;;;7.38;;
57441;SDS011;43284;47.042;15.498;2022-10-31T03:48:59;24.55;;;6.65;;
57441;SDS011;43284;47.042;15.498;2022-10-31T03:54:37;20.58;;;6.82;;
57441;SDS011;43284;47.042;15.498;2022-10-31T03:57:19;14.85;;;6.00;;
57441;SDS011;43284;47.042;15.498;2022-10-31T04:00:00;21.67;;;6.78;;
57441;SDS011;43284;47.042;15.498;2022-10-31T04:02:33;13.45;;;6.10;;
57441;SDS011;43284;47.042;15.498;2022-10-31T04:05:05;17.85;;;7.10;;
57441;SDS011;43284;47.042;15.498;2022-10-31T04:07:36;18.00;;;7.00;;
57441;SDS011;43284;47.042;15.498;2022-10-31T04:10:09;18.58;;;6.55;;
57441;SDS011;43284;47.042;15.498;2022-10-31T04:12:39;15.38;;;5.80;;
57441;SDS011;43284;47.042;15.498;2022-10-31T04:15:09;17.92;;;5.80;;
57441;SDS011;43284;47.042;15.498;2022-10-31T04:17:39;20.15;;;5.95;;
57441;SDS011;43284;47.042;15.498;2022-10-31T04:20:09;15.88;;;7.35;;
57441;SDS011;43284;47.042;15.498;2022-10-31T04:22:37;15.57;;;6.85;;
57441;SDS011;43284;47.042;15.498;2022-10-31T04:25:04;19.38;;;6.45;;
57441;SDS011;43284;47.042;15.498;2022-10-31T04:27:32;17.63;;;6.25;;
57441;SDS011;43284;47.042;15.498;2022-10-31T04:29:59;19.40;;;6.85;;
57441;SDS011;43284;47.042;15.498;2022-10-31T04:32:27;14.07;;;6.43;;
57441;SDS011;43284;47.042;15.498;2022-10-31T04:34:54;15.57;;;6.57;;
57441;SDS011;43284;47.042;15.498;2022-10-31T04:37:22;23.13;;;6.20;;
57441;SDS011;43284;47.042;15.498;2022-10-31T04:39:49;16.65;;;6.43;;
57441;SDS011;43284;47.042;15.498;2022-10-31T04:42:16;14.60;;;6.03;;
57441;SDS011;43284;47.042;15.498;2022-10-31T04:44:44;18.38;;;6.30;;
57441;SDS011;43284;47.042;15.498;2022-10-31T04:47:11;15.68;;;5.93;;
57441;SDS011;43284;47.042;15.498;2022-10-31T04:49:39;18.80;;;6.10;;
57441;SDS011;43284;47.042;15.498;2022-10-31T04:52:06;14.70;;;5.70;;
57441;SDS011;43284;47.042;15.498;2022-10-31T04:54:34;20.42;;;6.10;;
57441;SDS011;43284;47.042;15.498;2022-10-31T04:57:01;15.40;;;5.95;;
57441;SDS011;43284;47.042;15.498;2022-10-31T04:59:28;14.07;;;5.45;;
57441;SDS011;43284;47.042;15.498;2022-10-31T05:01:56;11.10;;;5.45;;
57441;SDS011;43284;47.042;15.498;2022-10-31T05:04:23;18.73;;;6.10;;
57441;SDS011;43284;47.042;15.498;2022-10-31T05:06:51;17.15;;;6.15;;
57441;SDS011;43284;47.042;15.498;2022-10-31T05:09:18;17.95;;;6.03;;
57441;SDS011;43284;47.042;15.498;2022-10-31T05:11:46;13.65;;;6.47;;
57441;SDS011;43284;47.042;15.498;2022-10-31T05:14:13;17.40;;;6.00;;
57441;SDS011;43284;47.042;15.498;2022-10-31T05:16:41;10.15;;;6.10;;
57441;SDS011;43284;47.042;15.498;2022-10-31T05:19:08;17.75;;;6.15;;
57441;SDS011;43284;47.042;15.498;2022-10-31T05:21:35;14.85;;;5.63;;
57441;SDS011;43284;47.042;15.498;2022-10-31T05:24:02;18.92;;;6.10;;
57441;SDS011;43284;47.042;15.498;2022-10-31T05:26:30;13.20;;;5.80;;
57441;SDS011;43284;47.042;15.498;2022-10-31T05:28:58;17.02;;;5.88;;
57441;SDS011;43284;47.042;15.498;2022-10-31T05:31:25;12.60;;;5.28;;
57441;SDS011;43284;47.042;15.498;2022-10-31T05:33:53;11.82;;;5.25;;
57441;SDS011;43284;47.042;15.498;2022-10-31T05:36:20;19.52;;;6.22;;
57441;SDS011;43284;47.042;15.498;2022-10-31T05:38:48;12.95;;;5.90;;
57441;SDS011;43284;47.042;15.498;2022-10-31T05:41:15;17.95;;;6.03;;
57441;SDS011;43284;47.042;15.498;2022-10-31T05:43:42;12.63;;;5.45;;
57441;SDS011;43284;47.042;15.498;2022-10-31T05:46:09;12.85;;;6.50;;
57441;SDS011;43284;47.042;15.498;2022-10-31T05:48:37;21.13;;;7.05;;
57441;SDS011;43284;47.042;15.498;2022-10-31T05:51:04;18.40;;;6.43;;
57441;SDS011;43284;47.042;15.498;2022-10-31T05:53:32;15.90;;;6.13;;
57441;SDS011;43284;47.042;15.498;2022-10-31T05:55:59;18.30;;;6.57;;
57441;SDS011;43284;47.042;15.498;2022-10-31T05:58:27;21.60;;;6.68;;
57441;SDS011;43284;47.042;15.498;2022-10-31T06:00:54;14.43;;;5.60;;
57441;SDS011;43284;47.042;15.498;2022-10-31T06:03:21;15.02;;;5.53;;
57441;SDS011;43284;47.042;15.498;2022-10-31T06:05:49;16.55;;;7.13;;
57441;SDS011;43284;47.042;15.498;2022-10-31T06:08:17;11.93;;;5.72;;
57441;SDS011;43284;47.042;15.498;2022-10-31T06:10:45;20.38;;;7.45;;
57441;SDS011;43284;47.042;15.498;2022-10-31T06:13:13;21.45;;;6.07;;
57441;SDS011;43284;47.042;15.498;2022-10-31T06:15:41;25.58;;;6.82;;
57441;SDS011;43284;47.042;15.498;2022-10-31T06:18:08;10.63;;;5.25;;
57441;SDS011;43284;47.042;15.498;2022-10-31T06:20:36;14.02;;;6.00;;
57441;SDS011;43284;47.042;15.498;2022-10-31T06:23:04;15.70;;;6.28;;
57441;SDS011;43284;47.042;15.498;2022-10-31T06:25:32;12.80;;;5.32;;
57441;SDS011;43284;47.042;15.498;2022-10-31T06:27:59;14.43;;;5.80;;
57441;SDS011;43284;47.042;15.498;2022-10-31T06:30:26;13.25;;;6.30;;
57441;SDS011;43284;47.042;15.498;2022-10-31T06:32:54;14.38;;;6.07;;
57441;SDS011;43284;47.042;15.498;2022-10-31T06:35:21;16.17;;;6.00;;
57441;SDS011;43284;47.042;15.498;2022-10-31T06:37:52;15.77;;;6.60;;
57441;SDS011;43284;47.042;15.498;2022-10-31T06:40:21;15.05;;;6.38;;
57441;SDS011;43284;47.042;15.498;2022-10-31T06:42:58;20.10;;;6.57;;
57441;SDS011;43284;47.042;15.498;2022-10-31T06:45:26;16.98;;;6.88;;
57441;SDS011;43284;47.042;15.498;2022-10-31T06:47:54;16.60;;;6.95;;
57441;SDS011;43284;47.042;15.498;2022-10-31T06:50:22;17.88;;;6.93;;
57441;SDS011;43284;47.042;15.498;2022-10-31T06:52:52;19.70;;;8.10;;
57441;SDS011;43284;47.042;15.498;2022-10-31T06:55:21;21.67;;;8.00;;
57441;SDS011;43284;47.042;15.498;2022-10-31T06:57:54;22.90;;;8.35;;
57441;SDS011;43284;47.042;15.498;2022-10-31T07:00:23;14.52;;;7.20;;
57441;SDS011;43284;47.042;15.498;2022-10-31T07:02:55;18.40;;;7.78;;
57441;SDS011;43284;47.042;15.498;2022-10-31T07:05:27;21.40;;;7.85;;
57441;SDS011;43284;47.042;15.498;2022-10-31T07:07:56;21.45;;;7.25;;
57441;SDS011;43284;47.042;15.498;2022-10-31T07:10:27;29.55;;;8.32;;
57441;SDS011;43284;47.042;15.498;2022-10-31T07:12:58;26.27;;;8.98;;
57441;SDS011;43284;47.042;15.498;2022-10-31T07:15:32;28.43;;;9.43;;
57441;SDS011;43284;47.042;15.498;2022-10-31T07:18:03;21.33;;;9.18;;
57441;SDS011;43284;47.042;15.498;2022-10-31T07:20:33;28.05;;;8.30;;
57441;SDS011;43284;47.042;15.498;2022-10-31T07:23:00;17.70;;;7.70;;
57441;SDS011;43284;47.042;15.498;2022-10-31T07:25:28;20.10;;;9.07;;
57441;SDS011;43284;47.042;15.498;2022-10-31T07:27:57;24.15;;;10.60;;
57441;SDS011;43284;47.042;15.498;2022-10-31T07:30:24;29.52;;;11.18;;
57441;SDS011;43284;47.042;15.498;2022-10-31T07:32:51;27.10;;;10.75;;
57441;SDS011;43284;47.042;15.498;2022-10-31T07:35:20;27.15;;;11.40;;
57441;SDS011;43284;47.042;15.498;2022-10-31T07:37:53;22.10;;;10.57;;
57441;SDS011;43284;47.042;15.498;2022-10-31T07:40:20;27.88;;;11.10;;
57441;SDS011;43284;47.042;15.498;2022-10-31T07:42:49;29.38;;;11.15;;
57441;SDS011;43284;47.042;15.498;2022-10-31T07:45:19;30.80;;;10.88;;
57441;SDS011;43284;47.042;15.498;2022-10-31T07:47:48;30.23;;;11.98;;
57441;SDS011;43284;47.042;15.498;2022-10-31T07:50:18;24.50;;;10.73;;
57441;SDS011;43284;47.042;15.498;2022-10-31T07:53:00;25.55;;;10.23;;
57441;SDS011;43284;47.042;15.498;2022-10-31T07:55:32;24.98;;;10.40;;
57441;SDS011;43284;47.042;15.498;2022-10-31T07:58:00;27.15;;;10.00;;
57441;SDS011;43284;47.042;15.498;2022-10-31T08:00:29;25.83;;;9.90;;
57441;SDS011;43284;47.042;15.498;2022-10-31T08:02:58;36.13;;;10.25;;
57441;SDS011;43284;47.042;15.498;2022-10-31T08:05:31;26.30;;;9.48;;
57441;SDS011;43284;47.042;15.498;2022-10-31T08:07:59;25.55;;;9.48;;
57441;SDS011;43284;47.042;15.498;2022-10-31T08:10:27;21.98;;;8.80;;
57441;SDS011;43284;47.042;15.498;2022-10-31T08:12:58;21.35;;;9.52;;
57441;SDS011;43284;47.042;15.498;2022-10-31T08:15:31;19.00;;;8.70;;
57441;SDS011;43284;47.042;15.498;2022-10-31T08:18:12;22.20;;;8.75;;
57441;SDS011;43284;47.042;15.498;2022-10-31T08:20:44;23.65;;;8.30;;
57441;SDS011;43284;47.042;15.498;2022-10-31T08:23:12;19.42;;;7.93;;
57441;SDS011;43284;47.042;15.498;2022-10-31T08:25:40;25.27;;;7.80;;
57441;SDS011;43284;47.042;15.498;2022-10-31T08:28:08;16.45;;;7.22;;
57441;SDS011;43284;47.042;15.498;2022-10-31T08:30:37;13.18;;;7.07;;
57441;SDS011;43284;47.042;15.498;2022-10-31T08:33:06;21.38;;;6.40;;
57441;SDS011;43284;47.042;15.498;2022-10-31T08:35:38;16.05;;;6.35;;
57441;SDS011;43284;47.042;15.498;2022-10-31T08:38:07;18.48;;;6.00;;
57441;SDS011;43284;47.042;15.498;2022-10-31T08:40:36;15.77;;;6.75;;
57441;SDS011;43284;47.042;15.498;2022-10-31T08:43:04;14.85;;;5.57;;
57441;SDS011;43284;47.042;15.498;2022-10-31T08:45:33;14.20;;;5.90;;
57441;SDS011;43284;47.042;15.498;2022-10-31T08:48:02;14.93;;;5.30;;
57441;SDS011;43284;47.042;15.498;2022-10-31T08:50:32;16.38;;;6.22;;
57441;SDS011;43284;47.042;15.498;2022-10-31T08:53:09;16.92;;;5.50;;
57441;SDS011;43284;47.042;15.498;2022-10-31T08:55:39;17.00;;;6.05;;
57441;SDS011;43284;47.042;15.498;2022-10-31T08:58:12;17.80;;;6.35;;
57441;SDS011;43284;47.042;15.498;2022-10-31T09:00:42;16.33;;;5.47;;
57441;SDS011;43284;47.042;15.498;2022-10-31T09:03:11;14.00;;;5.68;;
57441;SDS011;43284;47.042;15.498;2022-10-31T09:05:40;15.98;;;5.40;;
57441;SDS011;43284;47.042;15.498;2022-10-31T09:08:08;18.52;;;6.07;;
57441;SDS011;43284;47.042;15.498;2022-10-31T09:10:36;17.73;;;6.93;;
57441;SDS011;43284;47.042;15.498;2022-10-31T09:13:12;24.55;;;7.22;;
57441;SDS011;43284;47.042;15.498;2022-10-31T09:15:42;18.25;;;6.78;;
57441;SDS011;43284;47.042;15.498;2022-10-31T09:18:12;12.05;;;6.55;;
57441;SDS011;43284;47.042;15.498;2022-10-31T09:20:42;16.55;;;6.70;;
57441;SDS011;43284;47.042;15.498;2022-10-31T09:23:11;23.23;;;7.57;;
57441;SDS011;43284;47.042;15.498;2022-10-31T09:25:40;19.98;;;6.60;;
57441;SDS011;43284;47.042;15.498;2022-10-31T09:28:09;21.85;;;6.40;;
57441;SDS011;43284;47.042;15.498;2022-10-31T09:30:39;21.85;;;8.63;;
57441;SDS011;43284;47.042;15.498;2022-10-31T09:33:09;16.95;;;7.05;;
57441;SDS011;43284;47.042;15.498;2022-10-31T09:35:37;17.67;;;6.65;;
57441;SDS011;43284;47.042;15.498;2022-10-31T09:38:08;14.05;;;6.03;;
57441;SDS011;43284;47.042;15.498;2022-10-31T09:40:54;12.35;;;5.97;;
57441;SDS011;43284;47.042;15.498;2022-10-31T09:51:49;15.20;;;6.50;;
57441;SDS011;43284;47.042;15.498;2022-10-31T09:54:38;15.95;;;5.72;;
57441;SDS011;43284;47.042;15.498;2022-10-31T09:57:18;15.63;;;6.00;;
57441;SDS011;43284;47.042;15.498;2022-10-31T10:05:17;15.13;;;5.95;;
57441;SDS011;43284;47.042;15.498;2022-10-31T10:08:08;16.63;;;5.65;;
57441;SDS011;43284;47.042;15.498;2022-10-31T10:19:02;19.13;;;5.65;;
57441;SDS011;43284;47.042;15.498;2022-10-31T10:22:02;14.23;;;5.05;;
57441;SDS011;43284;47.042;15.498;2022-10-31T10:30:11;13.23;;;4.88;;
57441;SDS011;43284;47.042;15.498;2022-10-31T10:32:42;12.50;;;5.05;;
57441;SDS011;43284;47.042;15.498;2022-10-31T10:40:51;11.33;;;7.13;;
57441;SDS011;43284;47.042;15.498;2022-10-31T10:43:22;13.23;;;5.00;;
57441;SDS011;43284;47.042;15.498;2022-10-31T10:54:35;12.80;;;5.18;;
57441;SDS011;43284;47.042;15.498;2022-10-31T11:00:14;9.90;;;5.15;;
57441;SDS011;43284;47.042;15.498;2022-10-31T11:02:51;12.20;;;4.70;;
57441;SDS011;43284;47.042;15.498;2022-10-31T11:05:28;16.50;;;5.57;;
57441;SDS011;43284;47.042;15.498;2022-10-31T11:08:02;10.33;;;4.23;;
57441;SDS011;43284;47.042;15.498;2022-10-31T11:10:30;12.50;;;4.60;;
57441;SDS011;43284;47.042;15.498;2022-10-31T11:13:03;14.82;;;4.45;;
57441;SDS011;43284;47.042;15.498;2022-10-31T11:15:38;21.40;;;5.03;;
57441;SDS011;43284;47.042;15.498;2022-10-31T11:18:21;12.68;;;4.60;;
57441;SDS011;43284;47.042;15.498;2022-10-31T11:20:53;13.15;;;5.18;;
57441;SDS011;43284;47.042;15.498;2022-10-31T11:23:23;12.52;;;4.55;;
57441;SDS011;43284;47.042;15.498;2022-10-31T11:25:54;10.48;;;4.60;;
57441;SDS011;43284;47.042;15.498;2022-10-31T11:28:21;15.70;;;4.70;;
57441;SDS011;43284;47.042;15.498;2022-10-31T11:33:32;15.40;;;5.10;;
57441;SDS011;43284;47.042;15.498;2022-10-31T11:36:13;12.52;;;4.65;;
57441;SDS011;43284;47.042;15.498;2022-10-31T11:38:48;10.55;;;4.15;;
57441;SDS011;43284;47.042;15.498;2022-10-31T11:41:24;10.65;;;4.38;;
57441;SDS011;43284;47.042;15.498;2022-10-31T11:43:58;9.55;;;4.25;;
57441;SDS011;43284;47.042;15.498;2022-10-31T11:46:33;6.53;;;4.72;;
57441;SDS011;43284;47.042;15.498;2022-10-31T11:49:13;10.32;;;4.25;;
57441;SDS011;43284;47.042;15.498;2022-10-31T11:51:56;8.20;;;3.83;;
57441;SDS011;43284;47.042;15.498;2022-10-31T11:54:29;9.17;;;3.80;;
57441;SDS011;43284;47.042;15.498;2022-10-31T11:57:31;6.50;;;3.72;;
57441;SDS011;43284;47.042;15.498;2022-10-31T12:00:26;12.05;;;4.32;;
57441;SDS011;43284;47.042;15.498;2022-10-31T12:06:16;8.13;;;4.07;;
57441;SDS011;43284;47.042;15.498;2022-10-31T12:09:18;16.85;;;4.25;;
57441;SDS011;43284;47.042;15.498;2022-10-31T12:14:42;9.40;;;4.07;;
57441;SDS011;43284;47.042;15.498;2022-10-31T12:29:13;11.48;;;4.00;;
57441;SDS011;43284;47.042;15.498;2022-10-31T12:32:05;4.65;;;3.90;;
57441;SDS011;43284;47.042;15.498;2022-10-31T12:40:04;7.43;;;4.32;;
57441;SDS011;43284;47.042;15.498;2022-10-31T12:57:09;13.30;;;4.22;;
57441;SDS011;43284;47.042;15.498;2022-10-31T12:59:44;12.60;;;4.50;;
57441;SDS011;43284;47.042;15.498;2022-10-31T13:07:43;10.88;;;4.20;;
57441;SDS011;43284;47.042;15.498;2022-10-31T13:10:35;10.05;;;4.35;;
57441;SDS011;43284;47.042;15.498;2022-10-31T13:13:27;15.93;;;4.32;;
57441;SDS011;43284;47.042;15.498;2022-10-31T13:16:07;8.05;;;3.85;;
57441;SDS011;43284;47.042;15.498;2022-10-31T13:18:44;10.27;;;4.07;;
57441;SDS011;43284;47.042;15.498;2022-10-31T13:21:24;7.38;;;3.97;;
57441;SDS011;43284;47.042;15.498;2022-10-31T13:23:57;13.95;;;4.25;;
57441;SDS011;43284;47.042;15.498;2022-10-31T13:26:33;9.23;;;4.03;;
57441;SDS011;43284;47.042;15.498;2022-10-31T13:29:05;10.13;;;4.63;;
57441;SDS011;43284;47.042;15.498;2022-10-31T13:31:39;11.70;;;4.53;;
57441;SDS011;43284;47.042;15.498;2022-10-31T13:34:24;14.13;;;4.28;;
57441;SDS011;43284;47.042;15.498;2022-10-31T13:37:00;8.75;;;4.10;;
57441;SDS011;43284;47.042;15.498;2022-10-31T13:39:49;10.40;;;4.43;;
57441;SDS011;43284;47.042;15.498;2022-10-31T13:42:45;6.30;;;3.83;;
57441;SDS011;43284;47.042;15.498;2022-10-31T13:45:32;11.95;;;4.30;;
57441;SDS011;43284;47.042;15.498;2022-10-31T13:48:01;12.63;;;3.88;;
57441;SDS011;43284;47.042;15.498;2022-10-31T13:50:57;6.95;;;3.58;;
57441;SDS011;43284;47.042;15.498;2022-10-31T13:58:58;6.05;;;3.78;;
57441;SDS011;43284;47.042;15.498;2022-10-31T14:01:29;8.98;;;4.00;;
57441;SDS011;43284;47.042;15.498;2022-10-31T14:03:59;9.93;;;4.22;;
57441;SDS011;43284;47.042;15.498;2022-10-31T14:06:50;9.68;;;4.03;;
57441;SDS011;43284;47.042;15.498;2022-10-31T14:09:56;9.10;;;4.93;;
57441;SDS011;43284;47.042;15.498;2022-10-31T14:15:12;10.13;;;4.15;;
57441;SDS011;43284;47.042;15.498;2022-10-31T14:18:00;8.25;;;4.20;;
57441;SDS011;43284;47.042;15.498;2022-10-31T14:20:33;13.25;;;4.30;;
57441;SDS011;43284;47.042;15.498;2022-10-31T14:28:58;7.18;;;4.60;;
57441;SDS011;43284;47.042;15.498;2022-10-31T14:31:42;11.05;;;4.65;;
57441;SDS011;43284;47.042;15.498;2022-10-31T14:42:27;14.27;;;4.68;;
57441;SDS011;43284;47.042;15.498;2022-10-31T14:50:54;12.45;;;4.47;;
57441;SDS011;43284;47.042;15.498;2022-10-31T14:53:29;10.85;;;4.68;;
57441;SDS011;43284;47.042;15.498;2022-10-31T14:56:00;13.95;;;5.28;;
57441;SDS011;43284;47.042;15.498;2022-10-31T15:01:30;15.40;;;4.82;;
57441;SDS011;43284;47.042;15.498;2022-10-31T15:04:09;17.13;;;4.82;;
57441;SDS011;43284;47.042;15.498;2022-10-31T15:06:43;9.38;;;4.70;;
57441;SDS011;43284;47.042;15.498;2022-10-31T15:09:25;15.15;;;4.93;;
57441;SDS011;43284;47.042;15.498;2022-10-31T15:11:53;9.77;;;4.47;;
57441;SDS011;43284;47.042;15.498;2022-10-31T15:14:23;11.50;;;5.35;;
57441;SDS011;43284;47.042;15.498;2022-10-31T15:16:53;9.15;;;4.57;;
57441;SDS011;43284;47.042;15.498;2022-10-31T15:19:22;10.13;;;5.10;;
57441;SDS011;43284;47.042;15.498;2022-10-31T15:21:54;12.20;;;5.50;;
57441;SDS011;43284;47.042;15.498;2022-10-31T15:24:27;9.00;;;4.53;;
57441;SDS011;43284;47.042;15.498;2022-10-31T15:27:02;9.70;;;5.43;;
57441;SDS011;43284;47.042;15.498;2022-10-31T15:29:30;6.60;;;4.68;;
57441;SDS011;43284;47.042;15.498;2022-10-31T15:31:59;13.43;;;6.05;;
57441;SDS011;43284;47.042;15.498;2022-10-31T15:34:36;8.82;;;5.00;;
57441;SDS011;43284;47.042;15.498;2022-10-31T15:37:08;8.65;;;4.88;;
57441;SDS011;43284;47.042;15.498;2022-10-31T15:39:38;10.45;;;4.90;;
57441;SDS011;43284;47.042;15.498;2022-10-31T15:42:14;11.75;;;4.88;;
57441;SDS011;43284;47.042;15.498;2022-10-31T15:44:49;9.77;;;5.93;;
57441;SDS011;43284;47.042;15.498;2022-10-31T15:47:30;11.65;;;5.00;;
57441;SDS011;43284;47.042;15.498;2022-10-31T15:49:59;9.05;;;5.13;;
57441;SDS011;43284;47.042;15.498;2022-10-31T15:52:39;7.78;;;4.80;;
57441;SDS011;43284;47.042;15.498;2022-10-31T15:55:47;7.28;;;4.85;;
57441;SDS011;43284;47.042;15.498;2022-10-31T15:58:14;12.95;;;6.05;;
57441;SDS011;43284;47.042;15.498;2022-10-31T16:00:43;14.73;;;5.80;;
57441;SDS011;43284;47.042;15.498;2022-10-31T16:05:45;12.68;;;4.88;;
57441;SDS011;43284;47.042;15.498;2022-10-31T16:08:32;9.98;;;5.38;;
57441;SDS011;43284;47.042;15.498;2022-10-31T16:13:41;10.80;;;5.38;;
57441;SDS011;43284;47.042;15.498;2022-10-31T16:16:42;13.60;;;5.95;;
57441;SDS011;43284;47.042;15.498;2022-10-31T16:19:24;17.05;;;6.00;;
57441;SDS011;43284;47.042;15.498;2022-10-31T16:24:48;30.13;;;12.50;;
57441;SDS011;43284;47.042;15.498;2022-10-31T16:27:21;12.95;;;6.85;;
57441;SDS011;43284;47.042;15.498;2022-10-31T16:29:53;9.80;;;5.22;;
57441;SDS011;43284;47.042;15.498;2022-10-31T16:32:34;16.55;;;6.75;;
57441;SDS011;43284;47.042;15.498;2022-10-31T16:37:42;10.02;;;5.78;;
57441;SDS011;43284;47.042;15.498;2022-10-31T16:40:11;17.42;;;7.53;;
57441;SDS011;43284;47.042;15.498;2022-10-31T16:42:40;191.35;;;92.70;;
57441;SDS011;43284;47.042;15.498;2022-10-31T16:45:14;425.00;;;211.93;;
57441;SDS011;43284;47.042;15.498;2022-10-31T16:47:42;250.43;;;108.63;;
57441;SDS011;43284;47.042;15.498;2022-10-31T16:50:23;84.30;;;38.17;;
57441;SDS011;43284;47.042;15.498;2022-10-31T16:52:53;19.70;;;8.80;;
57441;SDS011;43284;47.042;15.498;2022-10-31T16:55:21;18.25;;;8.68;;
57441;SDS011;43284;47.042;15.498;2022-10-31T16:57:50;11.60;;;7.95;;
57441;SDS011;43284;47.042;15.498;2022-10-31T17:00:21;16.48;;;7.57;;
57441;SDS011;43284;47.042;15.498;2022-10-31T17:02:53;11.80;;;6.72;;
57441;SDS011;43284;47.042;15.498;2022-10-31T17:05:25;14.93;;;8.10;;
57441;SDS011;43284;47.042;15.498;2022-10-31T17:07:58;16.88;;;8.90;;
57441;SDS011;43284;47.042;15.498;2022-10-31T17:10:25;21.52;;;8.55;;
57441;SDS011;43284;47.042;15.498;2022-10-31T17:12:54;15.75;;;7.47;;
57441;SDS011;43284;47.042;15.498;2022-10-31T17:15:23;17.55;;;8.15;;
57441;SDS011;43284;47.042;15.498;2022-10-31T17:17:53;13.68;;;7.45;;
57441;SDS011;43284;47.042;15.498;2022-10-31T17:20:27;10.60;;;7.03;;
57441;SDS011;43284;47.042;15.498;2022-10-31T17:22:56;13.35;;;6.90;;
57441;SDS011;43284;47.042;15.498;2022-10-31T17:25:26;13.75;;;7.90;;
57441;SDS011;43284;47.042;15.498;2022-10-31T17:27:55;13.68;;;7.35;;
57441;SDS011;43284;47.042;15.498;2022-10-31T17:30:22;13.32;;;8.15;;
57441;SDS011;43284;47.042;15.498;2022-10-31T17:32:51;19.17;;;8.98;;
57441;SDS011;43284;47.042;15.498;2022-10-31T17:35:20;18.42;;;8.38;;